Detall de PIREP

Printer-friendly versionPDF version

[2014/06/17 09:54:00]
Flight IATA:CT3113
Pilot Number:042
Company ICAO:CAT
Aircraft Type:F100/A
PAX:48
Aircraft Registration:PFJ
Departing Airport: LFMP
Destination Airport: LEBL
Alternate Airport:LEPA
Online: VATSIM
Route:KELAM J27 PPG B384 ALBER
Flight Level:F190
No Slew and time accel
No pause
Crash detect
Detect pilot in Cockpit between each 30 and 45 minutes
09:54 Zero fuel Weight: 81825 Lbs, Fuel Weight: 15509 Lbs
09:54 VATSIM:LFMP 170930Z 33015KT 9999 FEW040 26/08 Q1014 NOSIG
09:54 VATSIM:LEBL 170930Z 14004KT 9999 FEW030 23/14 Q1014 NOSIG
09:57 Parking Brakes off
10:00 Take-off
10:00 Take off Weight: 97022 Lbs
10:00 Wind: 329º @ 015 Knots Heading: 328º
10:00 POS N42º 44´ 52´´ E002º 52´ 00´´
10:00 Gear Up: 154 Knots
10:00 Flaps:1 at 154 Knots
10:00 Flaps:0 at 156 Knots
10:07 TOC
10:07 Fuel Weight: 14003 Lb
10:15 Wind:315º@031 Knots Heading: 187º Ground Speed: 446 Knots Altitude 19009 ft
10:16 TOD
10:16 Fuel Weight: 13144 Lb
10:26 Flaps:1 at 187 Knots
10:26 Flaps:2 at 186 Knots
10:29 Gear Down: 179 Knots
10:29 Flaps:3 at 179 Knots
10:29 Flaps:4 at 208 Knots
10:30 Wind:136º@005 Knots Heading: 243º Ground Speed: 154 Knots Altitude 1040 ft
10:30 TouchDown:Rate -503 ft/min Speed: 125 Knots
10:31 VATSIM:LEBL 171000Z 14005KT 100V180 9999 FEW030 24/14 Q1014 NOSIG
10:31 Land
10:31 Wind:136º@005 Knots
10:31 Heading: 245º
10:31 Flight Duration: 00:31
10:31 Landing Weight: 94404 Lbs
10:31 POS N41º 17´ 56´´ E002º 05´ 02´´
10:33 Parking brakes on
10:33 Block to Block Duration: 00:36
10:33 Final Fuel: 12361 Lbls
10:33 Spent Fuel: 3148 Lbls
10:33 Flight Length: 164 NM
10:33 TOD Land Length: 66 NM

Exportar CSV

Powered by Drupal - Modified by Danger4k